sensor_id;sensor_type;location;lat;lon;timestamp;pressure;altitude;pressure_sealevel;temperature;humidity
44697;BME280;57264;47.480;19.354;2023-04-09T00:01:17;99771.03;;;2.79;91.39
44697;BME280;57264;47.480;19.354;2023-04-09T00:03:42;99765.16;;;2.77;91.31
44697;BME280;57264;47.480;19.354;2023-04-09T00:06:10;99767.22;;;2.73;91.76
44697;BME280;57264;47.480;19.354;2023-04-09T00:08:36;99770.75;;;2.82;91.34
44697;BME280;57264;47.480;19.354;2023-04-09T00:11:02;99770.06;;;2.80;90.74
44697;BME280;57264;47.480;19.354;2023-04-09T00:13:27;99770.50;;;2.75;91.43
44697;BME280;57264;47.480;19.354;2023-04-09T00:15:53;99770.69;;;2.64;92.12
44697;BME280;57264;47.480;19.354;2023-04-09T00:18:18;99761.31;;;2.81;91.17
44697;BME280;57264;47.480;19.354;2023-04-09T00:20:44;99766.97;;;2.76;90.88
44697;BME280;57264;47.480;19.354;2023-04-09T00:23:09;99761.78;;;2.76;90.54
44697;BME280;57264;47.480;19.354;2023-04-09T00:25:35;99761.41;;;2.62;91.04
44697;BME280;57264;47.480;19.354;2023-04-09T00:28:01;99761.69;;;2.59;91.35
44697;BME280;57264;47.480;19.354;2023-04-09T00:30:29;99761.28;;;2.54;91.84
44697;BME280;57264;47.480;19.354;2023-04-09T00:32:56;99763.06;;;2.53;91.66
44697;BME280;57264;47.480;19.354;2023-04-09T00:35:22;99762.53;;;2.50;91.92
44697;BME280;57264;47.480;19.354;2023-04-09T00:37:47;99758.81;;;2.62;91.48
44697;BME280;57264;47.480;19.354;2023-04-09T00:40:13;99757.75;;;2.55;91.55
44697;BME280;57264;47.480;19.354;2023-04-09T00:42:39;99755.34;;;2.44;92.01
44697;BME280;57264;47.480;19.354;2023-04-09T00:45:05;99761.97;;;2.56;91.69
44697;BME280;57264;47.480;19.354;2023-04-09T00:47:31;99762.81;;;2.47;91.60
44697;BME280;57264;47.480;19.354;2023-04-09T00:49:57;99755.97;;;2.55;91.76
44697;BME280;57264;47.480;19.354;2023-04-09T00:52:24;99759.28;;;2.48;91.36
44697;BME280;57264;47.480;19.354;2023-04-09T00:54:51;99759.56;;;2.45;91.83
44697;BME280;57264;47.480;19.354;2023-04-09T00:57:17;99753.81;;;2.51;91.36
44697;BME280;57264;47.480;19.354;2023-04-09T00:59:43;99760.94;;;2.49;91.11
44697;BME280;57264;47.480;19.354;2023-04-09T01:04:35;99757.81;;;2.35;91.29
44697;BME280;57264;47.480;19.354;2023-04-09T01:13:49;99761.00;;;2.10;92.68
44697;BME280;57264;47.480;19.354;2023-04-09T01:16:21;99759.63;;;1.97;93.29
44697;BME280;57264;47.480;19.354;2023-04-09T01:18:59;99753.91;;;2.03;92.76
44697;BME280;57264;47.480;19.354;2023-04-09T01:21:31;99761.81;;;2.01;92.90
44697;BME280;57264;47.480;19.354;2023-04-09T01:24:26;99760.91;;;1.93;92.85
44697;BME280;57264;47.480;19.354;2023-04-09T01:27:02;99758.84;;;1.86;93.05
44697;BME280;57264;47.480;19.354;2023-04-09T01:29:32;99764.16;;;1.85;93.40
44697;BME280;57264;47.480;19.354;2023-04-09T01:32:00;99761.84;;;1.82;93.75
44697;BME280;57264;47.480;19.354;2023-04-09T01:34:28;99762.78;;;1.91;93.58
44697;BME280;57264;47.480;19.354;2023-04-09T01:36:57;99764.03;;;1.86;93.03
44697;BME280;57264;47.480;19.354;2023-04-09T01:39:25;99763.88;;;1.98;92.57
44697;BME280;57264;47.480;19.354;2023-04-09T01:41:51;99759.41;;;1.80;93.22
44697;BME280;57264;47.480;19.354;2023-04-09T01:44:18;99767.28;;;1.79;93.69
44697;BME280;57264;47.480;19.354;2023-04-09T01:46:48;99762.13;;;1.88;93.02
44697;BME280;57264;47.480;19.354;2023-04-09T01:49:14;99762.66;;;1.92;92.80
44697;BME280;57264;47.480;19.354;2023-04-09T01:51:42;99765.78;;;1.86;93.76
44697;BME280;57264;47.480;19.354;2023-04-09T01:54:08;99760.19;;;1.81;93.63
44697;BME280;57264;47.480;19.354;2023-04-09T01:56:44;99758.31;;;1.83;93.25
44697;BME280;57264;47.480;19.354;2023-04-09T01:59:10;99747.69;;;1.76;93.37
44697;BME280;57264;47.480;19.354;2023-04-09T02:01:59;99762.66;;;1.73;93.51
44697;BME280;57264;47.480;19.354;2023-04-09T02:04:32;99760.34;;;1.70;93.56
44697;BME280;57264;47.480;19.354;2023-04-09T02:09:47;99758.31;;;1.64;93.16
44697;BME280;57264;47.480;19.354;2023-04-09T02:12:17;99763.06;;;1.59;93.02
44697;BME280;57264;47.480;19.354;2023-04-09T02:14:45;99761.16;;;1.51;93.35
44697;BME280;57264;47.480;19.354;2023-04-09T02:17:11;99755.84;;;1.53;93.13
44697;BME280;57264;47.480;19.354;2023-04-09T02:19:42;99763.06;;;1.39;93.46
44697;BME280;57264;47.480;19.354;2023-04-09T02:22:10;99766.16;;;1.33;93.87
44697;BME280;57264;47.480;19.354;2023-04-09T02:24:39;99766.72;;;1.37;93.52
44697;BME280;57264;47.480;19.354;2023-04-09T02:27:05;99753.38;;;1.41;93.65
44697;BME280;57264;47.480;19.354;2023-04-09T02:29:31;99749.56;;;1.46;93.64
44697;BME280;57264;47.480;19.354;2023-04-09T02:31:57;99755.28;;;1.30;93.56
44697;BME280;57264;47.480;19.354;2023-04-09T02:34:22;99760.16;;;1.33;93.57
44697;BME280;57264;47.480;19.354;2023-04-09T02:36:48;99751.19;;;1.37;93.32
44697;BME280;57264;47.480;19.354;2023-04-09T02:39:13;99759.25;;;1.44;93.71
44697;BME280;57264;47.480;19.354;2023-04-09T02:41:39;99753.25;;;1.43;93.28
44697;BME280;57264;47.480;19.354;2023-04-09T02:44:05;99754.88;;;1.34;93.96
44697;BME280;57264;47.480;19.354;2023-04-09T02:46:30;99752.84;;;1.48;93.67
44697;BME280;57264;47.480;19.354;2023-04-09T02:48:56;99753.94;;;1.55;93.85
44697;BME280;57264;47.480;19.354;2023-04-09T02:51:21;99751.91;;;1.68;93.74
44697;BME280;57264;47.480;19.354;2023-04-09T02:53:47;99750.66;;;1.81;93.73
44697;BME280;57264;47.480;19.354;2023-04-09T02:56:13;99750.41;;;1.84;93.72
44697;BME280;57264;47.480;19.354;2023-04-09T02:58:38;99747.38;;;1.99;93.43
44697;BME280;57264;47.480;19.354;2023-04-09T03:01:04;99755.28;;;2.07;92.96
44697;BME280;57264;47.480;19.354;2023-04-09T03:03:29;99751.22;;;2.04;93.38
44697;BME280;57264;47.480;19.354;2023-04-09T03:05:55;99753.91;;;2.03;93.11
44697;BME280;57264;47.480;19.354;2023-04-09T03:08:21;99755.03;;;2.00;93.44
44697;BME280;57264;47.480;19.354;2023-04-09T03:10:47;99758.66;;;2.17;93.10
44697;BME280;57264;47.480;19.354;2023-04-09T03:13:12;99753.75;;;2.23;92.73
44697;BME280;57264;47.480;19.354;2023-04-09T03:15:38;99754.16;;;2.19;92.26
44697;BME280;57264;47.480;19.354;2023-04-09T03:18:04;99758.34;;;2.29;92.43
44697;BME280;57264;47.480;19.354;2023-04-09T03:20:29;99753.88;;;2.31;92.07
44697;BME280;57264;47.480;19.354;2023-04-09T03:22:55;99754.69;;;2.32;92.03
44697;BME280;57264;47.480;19.354;2023-04-09T03:25:20;99753.19;;;2.29;91.93
44697;BME280;57264;47.480;19.354;2023-04-09T03:27:46;99751.13;;;2.33;91.73
44697;BME280;57264;47.480;19.354;2023-04-09T03:30:12;99746.75;;;2.33;91.56
44697;BME280;57264;47.480;19.354;2023-04-09T03:32:37;99748.00;;;2.29;91.58
44697;BME280;57264;47.480;19.354;2023-04-09T03:35:03;99751.16;;;2.14;92.27
44697;BME280;57264;47.480;19.354;2023-04-09T03:37:28;99744.09;;;2.16;91.96
44697;BME280;57264;47.480;19.354;2023-04-09T03:39:54;99755.09;;;2.27;91.85
44697;BME280;57264;47.480;19.354;2023-04-09T03:42:19;99746.63;;;2.35;91.78
44697;BME280;57264;47.480;19.354;2023-04-09T03:44:45;99752.22;;;2.30;91.73
44697;BME280;57264;47.480;19.354;2023-04-09T03:47:10;99752.94;;;2.32;91.59
44697;BME280;57264;47.480;19.354;2023-04-09T03:49:36;99754.94;;;2.29;91.60
44697;BME280;57264;47.480;19.354;2023-04-09T03:52:02;99747.41;;;2.45;91.21
44697;BME280;57264;47.480;19.354;2023-04-09T03:54:28;99755.19;;;2.45;90.58
44697;BME280;57264;47.480;19.354;2023-04-09T03:56:54;99756.00;;;2.46;90.24
44697;BME280;57264;47.480;19.354;2023-04-09T03:59:22;99759.31;;;2.38;90.76
44697;BME280;57264;47.480;19.354;2023-04-09T04:01:47;99753.28;;;2.47;90.48
44697;BME280;57264;47.480;19.354;2023-04-09T04:04:13;99759.34;;;2.28;91.03
44697;BME280;57264;47.480;19.354;2023-04-09T04:06:38;99763.69;;;2.28;91.15
44697;BME280;57264;47.480;19.354;2023-04-09T04:09:04;99758.22;;;2.31;90.98
44697;BME280;57264;47.480;19.354;2023-04-09T04:11:29;99764.59;;;2.46;90.32
44697;BME280;57264;47.480;19.354;2023-04-09T04:13:55;99766.66;;;2.43;90.62
44697;BME280;57264;47.480;19.354;2023-04-09T04:16:20;99764.59;;;2.46;90.58
44697;BME280;57264;47.480;19.354;2023-04-09T04:18:46;99769.66;;;2.48;90.32
44697;BME280;57264;47.480;19.354;2023-04-09T04:21:13;99767.06;;;2.48;90.06
44697;BME280;57264;47.480;19.354;2023-04-09T04:23:39;99772.38;;;2.46;90.93
44697;BME280;57264;47.480;19.354;2023-04-09T04:26:08;99772.63;;;2.53;89.92
44697;BME280;57264;47.480;19.354;2023-04-09T04:28:37;99773.72;;;2.50;90.26
44697;BME280;57264;47.480;19.354;2023-04-09T04:31:07;99767.16;;;2.56;89.90
44697;BME280;57264;47.480;19.354;2023-04-09T04:33:34;99771.81;;;2.52;90.18
44697;BME280;57264;47.480;19.354;2023-04-09T04:36:10;99774.78;;;2.57;89.96
44697;BME280;57264;47.480;19.354;2023-04-09T04:38:36;99775.19;;;2.62;89.42
44697;BME280;57264;47.480;19.354;2023-04-09T04:41:03;99779.00;;;2.68;89.63
44697;BME280;57264;47.480;19.354;2023-04-09T04:43:29;99772.50;;;2.81;88.49
44697;BME280;57264;47.480;19.354;2023-04-09T04:45:55;99779.00;;;2.68;88.93
44697;BME280;57264;47.480;19.354;2023-04-09T04:48:21;99774.00;;;2.57;89.41
44697;BME280;57264;47.480;19.354;2023-04-09T04:50:56;99782.84;;;2.54;89.74
44697;BME280;57264;47.480;19.354;2023-04-09T04:53:23;99777.16;;;2.78;89.23
44697;BME280;57264;47.480;19.354;2023-04-09T04:55:49;99784.94;;;2.78;89.41
44697;BME280;57264;47.480;19.354;2023-04-09T04:58:15;99774.97;;;2.83;88.91
44697;BME280;57264;47.480;19.354;2023-04-09T05:00:40;99780.66;;;2.96;87.96
44697;BME280;57264;47.480;19.354;2023-04-09T05:03:06;99790.34;;;2.94;87.65
44697;BME280;57264;47.480;19.354;2023-04-09T05:05:31;99787.50;;;2.88;88.28
44697;BME280;57264;47.480;19.354;2023-04-09T05:07:57;99781.09;;;2.82;88.29
44697;BME280;57264;47.480;19.354;2023-04-09T05:10:22;99791.63;;;2.80;88.46
44697;BME280;57264;47.480;19.354;2023-04-09T05:12:48;99791.84;;;2.97;88.42
44697;BME280;57264;47.480;19.354;2023-04-09T05:15:13;99787.03;;;3.02;87.54
44697;BME280;57264;47.480;19.354;2023-04-09T05:17:42;99790.53;;;3.10;87.36
44697;BME280;57264;47.480;19.354;2023-04-09T05:20:08;99786.69;;;3.14;87.07
44697;BME280;57264;47.480;19.354;2023-04-09T05:22:34;99790.53;;;3.10;87.09
44697;BME280;57264;47.480;19.354;2023-04-09T05:25:00;99798.84;;;3.14;87.77
44697;BME280;57264;47.480;19.354;2023-04-09T05:27:27;99800.97;;;3.28;86.14
44697;BME280;57264;47.480;19.354;2023-04-09T05:29:52;99796.78;;;3.17;87.45
44697;BME280;57264;47.480;19.354;2023-04-09T05:32:18;99801.69;;;3.20;87.05
44697;BME280;57264;47.480;19.354;2023-04-09T05:34:43;99797.94;;;3.33;86.21
44697;BME280;57264;47.480;19.354;2023-04-09T05:37:09;99798.03;;;3.13;86.93
44697;BME280;57264;47.480;19.354;2023-04-09T05:39:35;99796.31;;;3.32;86.72
44697;BME280;57264;47.480;19.354;2023-04-09T05:42:00;99799.13;;;3.38;86.36
44697;BME280;57264;47.480;19.354;2023-04-09T05:44:26;99797.38;;;3.29;85.63
44697;BME280;57264;47.480;19.354;2023-04-09T05:46:51;99804.75;;;3.34;86.81
44697;BME280;57264;47.480;19.354;2023-04-09T05:49:17;99804.91;;;3.50;86.13
44697;BME280;57264;47.480;19.354;2023-04-09T05:51:42;99807.16;;;3.45;86.05
44697;BME280;57264;47.480;19.354;2023-04-09T05:54:08;99809.84;;;3.53;85.71
44697;BME280;57264;47.480;19.354;2023-04-09T05:56:34;99806.41;;;3.52;85.86
44697;BME280;57264;47.480;19.354;2023-04-09T05:58:59;99815.75;;;3.63;85.54
44697;BME280;57264;47.480;19.354;2023-04-09T06:01:25;99821.56;;;3.57;86.29
44697;BME280;57264;47.480;19.354;2023-04-09T06:03:51;99822.00;;;3.70;85.62
44697;BME280;57264;47.480;19.354;2023-04-09T06:06:17;99824.66;;;3.78;85.47
44697;BME280;57264;47.480;19.354;2023-04-09T06:08:43;99816.88;;;3.78;85.16
44697;BME280;57264;47.480;19.354;2023-04-09T06:11:10;99819.91;;;3.56;86.41
44697;BME280;57264;47.480;19.354;2023-04-09T06:13:36;99822.28;;;3.67;85.49
44697;BME280;57264;47.480;19.354;2023-04-09T06:16:06;99817.56;;;3.80;84.94
44697;BME280;57264;47.480;19.354;2023-04-09T06:18:33;99824.41;;;3.54;85.69
44697;BME280;57264;47.480;19.354;2023-04-09T06:21:05;99819.72;;;3.85;84.76
44697;BME280;57264;47.480;19.354;2023-04-09T06:23:32;99830.47;;;3.72;85.57
44697;BME280;57264;47.480;19.354;2023-04-09T06:25:58;99828.31;;;3.67;85.74
44697;BME280;57264;47.480;19.354;2023-04-09T06:28:24;99828.69;;;3.90;84.93
44697;BME280;57264;47.480;19.354;2023-04-09T06:30:49;99826.91;;;3.91;85.24
44697;BME280;57264;47.480;19.354;2023-04-09T06:33:15;99833.00;;;3.99;84.37
44697;BME280;57264;47.480;19.354;2023-04-09T06:35:41;99829.19;;;3.94;85.18
44697;BME280;57264;47.480;19.354;2023-04-09T06:38:07;99834.13;;;3.97;85.48
44697;BME280;57264;47.480;19.354;2023-04-09T06:40:37;99832.69;;;4.02;85.00
44697;BME280;57264;47.480;19.354;2023-04-09T06:43:03;99827.34;;;3.86;84.88
44697;BME280;57264;47.480;19.354;2023-04-09T06:45:30;99831.66;;;3.95;85.37
44697;BME280;57264;47.480;19.354;2023-04-09T06:47:55;99828.25;;;4.12;84.30
44697;BME280;57264;47.480;19.354;2023-04-09T06:50:21;99826.09;;;3.90;85.40
44697;BME280;57264;47.480;19.354;2023-04-09T06:52:46;99830.78;;;4.04;85.30
44697;BME280;57264;47.480;19.354;2023-04-09T06:55:12;99842.50;;;3.91;86.18
44697;BME280;57264;47.480;19.354;2023-04-09T06:57:38;99837.50;;;3.97;86.38
44697;BME280;57264;47.480;19.354;2023-04-09T07:00:04;99841.88;;;4.14;85.72
44697;BME280;57264;47.480;19.354;2023-04-09T07:02:30;99844.19;;;4.17;85.16
44697;BME280;57264;47.480;19.354;2023-04-09T07:04:55;99841.38;;;4.29;85.05
44697;BME280;57264;47.480;19.354;2023-04-09T07:07:21;99842.06;;;4.13;84.94
44697;BME280;57264;47.480;19.354;2023-04-09T07:09:47;99848.66;;;4.25;85.04
44697;BME280;57264;47.480;19.354;2023-04-09T07:12:13;99849.31;;;4.27;85.41
44697;BME280;57264;47.480;19.354;2023-04-09T07:14:38;99858.28;;;4.15;85.87
44697;BME280;57264;47.480;19.354;2023-04-09T07:17:04;99850.31;;;4.52;85.02
44697;BME280;57264;47.480;19.354;2023-04-09T07:19:29;99851.84;;;4.62;83.90
44697;BME280;57264;47.480;19.354;2023-04-09T07:21:55;99858.38;;;4.66;84.32
44697;BME280;57264;47.480;19.354;2023-04-09T07:24:21;99858.09;;;4.78;84.62
44697;BME280;57264;47.480;19.354;2023-04-09T07:26:46;99867.94;;;4.66;84.08
44697;BME280;57264;47.480;19.354;2023-04-09T07:29:12;99858.41;;;5.00;82.32
44697;BME280;57264;47.480;19.354;2023-04-09T07:31:37;99862.53;;;5.11;81.52
44697;BME280;57264;47.480;19.354;2023-04-09T07:34:03;99866.81;;;5.20;81.48
44697;BME280;57264;47.480;19.354;2023-04-09T07:36:29;99860.72;;;5.03;81.99
44697;BME280;57264;47.480;19.354;2023-04-09T07:38:56;99867.03;;;5.35;81.34
44697;BME280;57264;47.480;19.354;2023-04-09T07:41:21;99865.41;;;5.42;81.90
44697;BME280;57264;47.480;19.354;2023-04-09T07:43:47;99864.75;;;5.82;80.23
44697;BME280;57264;47.480;19.354;2023-04-09T07:46:20;99868.56;;;5.45;79.42
44697;BME280;57264;47.480;19.354;2023-04-09T07:48:48;99860.09;;;5.93;79.10
44697;BME280;57264;47.480;19.354;2023-04-09T07:51:14;99857.78;;;5.90;77.51
44697;BME280;57264;47.480;19.354;2023-04-09T07:53:40;99862.03;;;5.99;77.47
44697;BME280;57264;47.480;19.354;2023-04-09T07:56:06;99859.59;;;6.06;75.44
44697;BME280;57264;47.480;19.354;2023-04-09T07:58:31;99855.88;;;6.17;75.64
44697;BME280;57264;47.480;19.354;2023-04-09T08:00:57;99858.63;;;6.15;76.15
44697;BME280;57264;47.480;19.354;2023-04-09T08:03:23;99859.44;;;6.16;78.23
44697;BME280;57264;47.480;19.354;2023-04-09T08:05:48;99861.09;;;6.57;75.34
44697;BME280;57264;47.480;19.354;2023-04-09T08:08:14;99858.00;;;6.62;74.46
44697;BME280;57264;47.480;19.354;2023-04-09T08:10:40;99866.91;;;6.75;75.20
44697;BME280;57264;47.480;19.354;2023-04-09T08:13:05;99864.81;;;6.54;74.98
44697;BME280;57264;47.480;19.354;2023-04-09T08:15:31;99865.78;;;6.78;75.33
44697;BME280;57264;47.480;19.354;2023-04-09T08:17:57;99866.75;;;6.85;74.47
44697;BME280;57264;47.480;19.354;2023-04-09T08:20:22;99873.72;;;7.09;73.96
44697;BME280;57264;47.480;19.354;2023-04-09T08:22:48;99865.56;;;7.03;73.73
44697;BME280;57264;47.480;19.354;2023-04-09T08:25:13;99868.47;;;7.17;71.99
44697;BME280;57264;47.480;19.354;2023-04-09T08:27:39;99869.66;;;7.06;75.47
44697;BME280;57264;47.480;19.354;2023-04-09T08:30:05;99878.63;;;6.95;75.27
44697;BME280;57264;47.480;19.354;2023-04-09T08:32:31;99884.19;;;6.84;75.45
44697;BME280;57264;47.480;19.354;2023-04-09T08:34:56;99882.16;;;7.19;74.42
44697;BME280;57264;47.480;19.354;2023-04-09T08:37:22;99884.00;;;7.49;72.05
44697;BME280;57264;47.480;19.354;2023-04-09T08:39:47;99881.16;;;7.28;74.07
44697;BME280;57264;47.480;19.354;2023-04-09T08:42:13;99883.97;;;7.57;71.91
44697;BME280;57264;47.480;19.354;2023-04-09T08:44:40;99885.22;;;7.30;71.27
44697;BME280;57264;47.480;19.354;2023-04-09T08:47:07;99891.69;;;7.42;71.54
44697;BME280;57264;47.480;19.354;2023-04-09T08:49:39;99891.16;;;7.55;72.94
44697;BME280;57264;47.480;19.354;2023-04-09T08:52:06;99891.50;;;7.83;72.74
44697;BME280;57264;47.480;19.354;2023-04-09T08:54:32;99889.97;;;7.96;68.54
44697;BME280;57264;47.480;19.354;2023-04-09T08:56:58;99892.63;;;7.88;70.57
44697;BME280;57264;47.480;19.354;2023-04-09T08:59:23;99889.63;;;8.30;69.52
44697;BME280;57264;47.480;19.354;2023-04-09T09:02:05;99892.69;;;8.57;67.13
44697;BME280;57264;47.480;19.354;2023-04-09T09:04:50;99894.56;;;9.00;65.61
44697;BME280;57264;47.480;19.354;2023-04-09T09:07:17;99897.03;;;8.64;66.27
44697;BME280;57264;47.480;19.354;2023-04-09T09:09:52;99895.38;;;8.86;65.97
44697;BME280;57264;47.480;19.354;2023-04-09T09:12:37;99892.94;;;9.28;65.23
44697;BME280;57264;47.480;19.354;2023-04-09T09:15:27;99895.56;;;9.28;66.13
44697;BME280;57264;47.480;19.354;2023-04-09T09:17:58;99893.78;;;9.79;61.84
44697;BME280;57264;47.480;19.354;2023-04-09T09:20:25;99890.94;;;9.96;62.99
44697;BME280;57264;47.480;19.354;2023-04-09T09:22:54;99902.53;;;9.51;63.40
44697;BME280;57264;47.480;19.354;2023-04-09T09:25:21;99896.81;;;9.62;63.17
44697;BME280;57264;47.480;19.354;2023-04-09T09:27:50;99897.97;;;9.59;62.77
44697;BME280;57264;47.480;19.354;2023-04-09T09:30:20;99900.31;;;9.69;61.39
44697;BME280;57264;47.480;19.354;2023-04-09T09:32:46;99892.31;;;9.41;62.81
44697;BME280;57264;47.480;19.354;2023-04-09T09:35:13;99884.31;;;9.78;61.99
44697;BME280;57264;47.480;19.354;2023-04-09T09:37:39;99886.34;;;9.83;61.69
44697;BME280;57264;47.480;19.354;2023-04-09T09:40:05;99888.66;;;9.71;62.24
44697;BME280;57264;47.480;19.354;2023-04-09T09:42:31;99887.06;;;9.92;59.02
44697;BME280;57264;47.480;19.354;2023-04-09T09:44:57;99888.66;;;9.71;62.44
44697;BME280;57264;47.480;19.354;2023-04-09T09:47:23;99881.69;;;10.00;61.89
44697;BME280;57264;47.480;19.354;2023-04-09T09:49:51;99884.00;;;10.24;62.23
44697;BME280;57264;47.480;19.354;2023-04-09T09:52:23;99874.66;;;10.64;57.34
44697;BME280;57264;47.480;19.354;2023-04-09T09:54:50;99879.38;;;10.26;60.51
44697;BME280;57264;47.480;19.354;2023-04-09T09:57:19;99874.00;;;10.34;60.02
44697;BME280;57264;47.480;19.354;2023-04-09T10:00:08;99872.13;;;10.49;58.65
44697;BME280;57264;47.480;19.354;2023-04-09T10:02:42;99880.44;;;9.96;62.20
44697;BME280;57264;47.480;19.354;2023-04-09T10:05:09;99873.59;;;9.95;61.10
44697;BME280;57264;47.480;19.354;2023-04-09T10:07:36;99880.56;;;9.87;62.28
44697;BME280;57264;47.480;19.354;2023-04-09T10:10:04;99889.41;;;10.01;61.62
44697;BME280;57264;47.480;19.354;2023-04-09T10:12:31;99879.13;;;10.21;60.28
44697;BME280;57264;47.480;19.354;2023-04-09T10:14:59;99879.34;;;10.05;59.96
44697;BME280;57264;47.480;19.354;2023-04-09T10:17:29;99873.50;;;9.88;60.40
44697;BME280;57264;47.480;19.354;2023-04-09T10:22:42;99878.88;;;10.16;61.20
44697;BME280;57264;47.480;19.354;2023-04-09T10:25:10;99881.03;;;10.12;59.58
44697;BME280;57264;47.480;19.354;2023-04-09T10:27:35;99871.63;;;10.39;59.33
44697;BME280;57264;47.480;19.354;2023-04-09T10:30:01;99871.47;;;10.47;58.60
44697;BME280;57264;47.480;19.354;2023-04-09T10:32:33;99883.22;;;10.51;59.20
44697;BME280;57264;47.480;19.354;2023-04-09T10:35:01;99869.63;;;10.41;58.34
44697;BME280;57264;47.480;19.354;2023-04-09T10:37:27;99877.84;;;10.59;59.00
44697;BME280;57264;47.480;19.354;2023-04-09T10:39:55;99881.34;;;10.03;59.48
44697;BME280;57264;47.480;19.354;2023-04-09T10:42:25;99879.50;;;10.18;59.24
44697;BME280;57264;47.480;19.354;2023-04-09T10:45:13;99878.41;;;10.27;58.79
44697;BME280;57264;47.480;19.354;2023-04-09T10:47:40;99870.91;;;10.09;59.97
44697;BME280;57264;47.480;19.354;2023-04-09T10:50:14;99877.41;;;10.13;61.17
44697;BME280;57264;47.480;19.354;2023-04-09T10:52:40;99882.97;;;10.04;58.39
44697;BME280;57264;47.480;19.354;2023-04-09T10:55:07;99881.84;;;10.13;57.61
44697;BME280;57264;47.480;19.354;2023-04-09T10:57:33;99878.88;;;9.80;59.73
44697;BME280;57264;47.480;19.354;2023-04-09T10:59:58;99878.84;;;9.95;59.02
44697;BME280;57264;47.480;19.354;2023-04-09T11:08:09;99875.91;;;10.19;60.45
44697;BME280;57264;47.480;19.354;2023-04-09T11:10:37;99870.59;;;10.61;58.21
44697;BME280;57264;47.480;19.354;2023-04-09T11:13:03;99869.66;;;10.69;58.72
44697;BME280;57264;47.480;19.354;2023-04-09T11:15:31;99865.06;;;10.77;56.68
44697;BME280;57264;47.480;19.354;2023-04-09T11:17:57;99863.44;;;10.49;56.02
44697;BME280;57264;47.480;19.354;2023-04-09T11:20:24;99863.88;;;10.52;56.62
44697;BME280;57264;47.480;19.354;2023-04-09T11:22:51;99858.88;;;10.36;56.93
44697;BME280;57264;47.480;19.354;2023-04-09T11:25:19;99857.13;;;10.43;57.79
44697;BME280;57264;47.480;19.354;2023-04-09T11:27:45;99850.53;;;10.26;59.45
44697;BME280;57264;47.480;19.354;2023-04-09T11:30:11;99860.81;;;10.49;59.78
44697;BME280;57264;47.480;19.354;2023-04-09T11:32:37;99856.13;;;10.44;57.80
44697;BME280;57264;47.480;19.354;2023-04-09T11:35:03;99853.44;;;10.87;58.22
44697;BME280;57264;47.480;19.354;2023-04-09T11:37:29;99851.25;;;11.31;56.01
44697;BME280;57264;47.480;19.354;2023-04-09T11:39:54;99854.88;;;11.30;58.35
44697;BME280;57264;47.480;19.354;2023-04-09T11:42:22;99849.31;;;11.12;58.03
44697;BME280;57264;47.480;19.354;2023-04-09T11:44:51;99849.09;;;11.07;56.71
44697;BME280;57264;47.480;19.354;2023-04-09T11:47:40;99846.50;;;11.54;54.62
44697;BME280;57264;47.480;19.354;2023-04-09T11:50:11;99856.84;;;11.21;56.87
44697;BME280;57264;47.480;19.354;2023-04-09T11:52:37;99842.59;;;11.44;55.92
44697;BME280;57264;47.480;19.354;2023-04-09T11:55:04;99846.34;;;11.21;57.83
44697;BME280;57264;47.480;19.354;2023-04-09T11:57:40;99846.28;;;11.08;58.95
44697;BME280;57264;47.480;19.354;2023-04-09T12:00:14;99850.41;;;10.62;56.40
44697;BME280;57264;47.480;19.354;2023-04-09T12:02:47;99846.16;;;10.33;58.17
44697;BME280;57264;47.480;19.354;2023-04-09T12:07:59;99848.69;;;10.75;57.70
44697;BME280;57264;47.480;19.354;2023-04-09T12:10:30;99843.00;;;10.44;58.94
44697;BME280;57264;47.480;19.354;2023-04-09T12:13:00;99852.50;;;10.45;57.63
44697;BME280;57264;47.480;19.354;2023-04-09T12:15:30;99847.44;;;10.44;57.43
44697;BME280;57264;47.480;19.354;2023-04-09T12:17:57;99846.72;;;10.56;59.45
44697;BME280;57264;47.480;19.354;2023-04-09T12:20:37;99842.44;;;10.76;56.79
44697;BME280;57264;47.480;19.354;2023-04-09T12:23:04;99851.09;;;10.43;55.68
44697;BME280;57264;47.480;19.354;2023-04-09T12:25:35;99846.41;;;10.38;56.26
44697;BME280;57264;47.480;19.354;2023-04-09T12:28:05;99847.09;;;10.25;56.58
44697;BME280;57264;47.480;19.354;2023-04-09T12:30:32;99851.31;;;10.05;58.52
44697;BME280;57264;47.480;19.354;2023-04-09T12:32:58;99841.06;;;10.10;57.78
44697;BME280;57264;47.480;19.354;2023-04-09T12:35:23;99835.63;;;10.54;56.13
44697;BME280;57264;47.480;19.354;2023-04-09T12:37:49;99837.19;;;10.49;55.01
44697;BME280;57264;47.480;19.354;2023-04-09T12:40:16;99836.75;;;10.45;57.86
44697;BME280;57264;47.480;19.354;2023-04-09T12:42:42;99836.38;;;10.48;55.52
44697;BME280;57264;47.480;19.354;2023-04-09T12:45:11;99836.34;;;10.69;55.18
44697;BME280;57264;47.480;19.354;2023-04-09T12:47:37;99835.69;;;10.67;55.89
44697;BME280;57264;47.480;19.354;2023-04-09T12:50:05;99826.59;;;10.63;54.92
44697;BME280;57264;47.480;19.354;2023-04-09T12:52:31;99835.66;;;10.89;55.50
44697;BME280;57264;47.480;19.354;2023-04-09T12:54:57;99836.25;;;11.25;52.36
44697;BME280;57264;47.480;19.354;2023-04-09T12:57:22;99833.72;;;11.04;52.83
44697;BME280;57264;47.480;19.354;2023-04-09T12:59:48;99839.69;;;11.19;53.86
44697;BME280;57264;47.480;19.354;2023-04-09T13:02:13;99837.41;;;11.16;53.47
44697;BME280;57264;47.480;19.354;2023-04-09T13:04:39;99843.03;;;11.47;52.33
44697;BME280;57264;47.480;19.354;2023-04-09T13:07:06;99830.50;;;11.56;53.12
44697;BME280;57264;47.480;19.354;2023-04-09T13:09:31;99827.88;;;10.74;53.13
44697;BME280;57264;47.480;19.354;2023-04-09T13:11:57;99823.28;;;11.17;53.97
44697;BME280;57264;47.480;19.354;2023-04-09T13:14:23;99825.88;;;10.76;55.14
44697;BME280;57264;47.480;19.354;2023-04-09T13:16:48;99822.47;;;11.16;54.59
44697;BME280;57264;47.480;19.354;2023-04-09T13:19:14;99824.34;;;11.29;55.40
44697;BME280;57264;47.480;19.354;2023-04-09T13:21:39;99816.78;;;11.13;55.67